White Lake, South Dakota
Current Conditions -  °F | °C
As of 9:35 AM on Saturday 20 Dec 2014 (Local Time) from K9V9 Reporting Station
Haze Haze  
Wind Chill:   Ceiling: 100
Heat Index: 16°   Visibility: 2mi
Dew Point: 14°   Wind: 5mph
Humidity: 93%   Direction: 100°E
Pressure: 29.98"   Gusts: NA
Location:  43.73°N, 98.71°W
Report Text: K9V9 201535Z AUTO 10004KT 2SM BR BKN001 M09/M10 A2998 RMK AO2 T10901100
Loading
Personal Weather Stations






























Interactive Weather Map New forecast layout! Learn more

10-Day Weather Forecast

Advertisements
Track Severe Weather on mobile